Time;durP1;ratioP1;P1;durP2;ratioP2;P2;SDS_P1;SDS_P2;PMS_P1;PMS_P2;Temp;Humidity;BMP_temperature;BMP_pressure;BME280_temperature;BME280_humidity;BME280_pressure;Samples;Min_cycle;Max_cycle;Signal;HPM_P1;HPM_P2
2022/03/07 00:02:12;;;;;;;4.30;3.53;;;0.30;97.30;;;;;;5038548;28;20577;-83
2022/03/07 00:04:38;;;;;;;3.97;3.43;;;0.30;97.30;;;;;;5037801;28;20229;-82
2022/03/07 00:07:04;;;;;;;6.60;3.07;;;0.30;97.30;;;;;;5042560;28;20410;-83
2022/03/07 00:09:29;;;;;;;7.23;3.57;;;0.30;97.30;;;;;;5057770;28;20183;-83
2022/03/07 00:11:55;;;;;;;5.00;3.00;;;0.30;97.30;;;;;;5075005;28;20467;-82
2022/03/07 00:14:20;;;;;;;7.10;4.03;;;0.30;97.30;;;;;;5074695;28;20167;-83
2022/03/07 00:16:46;;;;;;;11.10;3.50;;;0.30;97.30;;;;;;5075632;28;20183;-83
2022/03/07 00:19:12;;;;;;;6.20;3.73;;;0.30;97.30;;;;;;5074668;28;20244;-83
2022/03/07 00:21:38;;;;;;;4.13;3.10;;;0.40;97.30;;;;;;5057902;28;20175;-82
2022/03/07 00:24:05;;;;;;;4.10;3.30;;;0.40;97.30;;;;;;5074996;28;20508;-82
2022/03/07 00:26:31;;;;;;;5.93;3.60;;;0.40;97.30;;;;;;5059292;28;20226;-82
2022/03/07 00:28:56;;;;;;;4.13;3.10;;;0.40;97.30;;;;;;5075150;28;20424;-83
2022/03/07 00:31:23;;;;;;;12.57;4.30;;;0.40;97.30;;;;;;5074670;28;20205;-83
2022/03/07 00:33:49;;;;;;;7.27;3.83;;;0.40;97.30;;;;;;5056641;28;20707;-83
2022/03/07 00:36:15;;;;;;;4.73;3.03;;;0.40;97.30;;;;;;5058338;28;20430;-83
2022/03/07 00:38:41;;;;;;;6.00;3.30;;;0.40;97.30;;;;;;5076045;28;20475;-83
2022/03/07 00:41:16;;;;;;;5.90;3.33;;;0.40;97.30;;;;;;5075439;28;21078;-83
2022/03/07 00:43:42;;;;;;;5.07;3.33;;;0.40;97.30;;;;;;5073797;28;20193;-83
2022/03/07 00:46:07;;;;;;;6.23;3.10;;;0.40;97.30;;;;;;5074730;28;20813;-83
2022/03/07 00:48:33;;;;;;;5.70;3.23;;;0.40;97.30;;;;;;5074626;28;20190;-83
2022/03/07 00:50:58;;;;;;;5.63;3.10;;;0.40;97.30;;;;;;5074520;28;20235;-83
2022/03/07 00:53:26;;;;;;;5.20;2.97;;;0.40;97.30;;;;;;5074703;28;20522;-83
2022/03/07 00:55:53;;;;;;;9.10;3.30;;;0.40;97.30;;;;;;5057583;28;20654;-82
2022/03/07 00:58:18;;;;;;;4.90;3.13;;;0.40;97.30;;;;;;5057515;28;20431;-83
2022/03/07 01:00:45;;;;;;;5.70;3.40;;;0.40;97.30;;;;;;5057868;28;20480;-83
2022/03/07 01:03:15;;;;;;;7.67;3.47;;;0.40;97.30;;;;;;5074980;28;20266;-82
2022/03/07 01:05:44;;;;;;;5.80;3.27;;;0.40;97.30;;;;;;5057908;28;20481;-83
2022/03/07 01:08:10;;;;;;;5.43;3.17;;;0.40;97.30;;;;;;5044506;28;20527;-82
2022/03/07 01:10:36;;;;;;;4.57;3.27;;;0.40;97.30;;;;;;5037655;28;20434;-83
2022/03/07 01:13:02;;;;;;;4.47;3.50;;;0.40;97.30;;;;;;5037726;28;21030;-83
2022/03/07 01:15:27;;;;;;;6.07;3.53;;;0.30;97.30;;;;;;5038161;28;20431;-83
2022/03/07 01:17:54;;;;;;;6.70;3.87;;;0.40;97.30;;;;;;5038054;28;20514;-83
2022/03/07 01:20:20;;;;;;;6.50;3.57;;;0.30;97.30;;;;;;5037712;28;20206;-82
2022/03/07 01:22:46;;;;;;;3.97;3.07;;;0.30;97.30;;;;;;5037984;28;20426;-83
2022/03/07 01:25:11;;;;;;;6.60;4.17;;;0.30;97.30;;;;;;5037859;28;20282;-83
2022/03/07 01:27:37;;;;;;;8.63;3.47;;;0.30;97.30;;;;;;5038042;28;20184;-83
2022/03/07 01:30:04;;;;;;;6.67;3.03;;;0.30;97.30;;;;;;5038466;28;20186;-82
2022/03/07 01:32:30;;;;;;;4.63;3.13;;;0.30;97.30;;;;;;5038646;28;20207;-82
2022/03/07 01:34:55;;;;;;;7.20;3.47;;;0.30;97.30;;;;;;5037583;28;20491;-83
2022/03/07 01:37:21;;;;;;;6.23;3.67;;;0.30;97.30;;;;;;5054661;28;20176;-83
2022/03/07 01:39:46;;;;;;;6.83;3.90;;;0.30;97.30;;;;;;5055406;28;20183;-82
2022/03/07 01:42:12;;;;;;;4.97;3.67;;;0.30;97.30;;;;;;5055596;28;20217;-82
2022/03/07 01:44:38;;;;;;;5.87;4.00;;;0.30;97.30;;;;;;5055418;28;20253;-83
2022/03/07 01:47:04;;;;;;;5.27;3.33;;;0.30;97.30;;;;;;5058624;28;20172;-83
2022/03/07 01:49:30;;;;;;;6.10;4.03;;;0.30;97.30;;;;;;5041482;28;20172;-83
2022/03/07 01:51:56;;;;;;;5.30;3.27;;;0.30;97.30;;;;;;5058402;28;20464;-82
2022/03/07 01:54:22;;;;;;;9.10;4.07;;;0.30;97.30;;;;;;5041827;28;20210;-82
2022/03/07 01:56:50;;;;;;;4.40;3.47;;;0.30;97.30;;;;;;5042468;28;20414;-82
2022/03/07 01:59:19;;;;;;;6.47;3.70;;;0.30;97.30;;;;;;5040852;28;20407;-83
2022/03/07 02:01:45;;;;;;;5.23;3.63;;;0.20;97.30;;;;;;5042044;28;20414;-83
2022/03/07 02:04:11;;;;;;;6.73;3.40;;;0.20;97.30;;;;;;5041947;28;20425;-82
2022/03/07 02:06:38;;;;;;;6.53;3.53;;;0.30;97.30;;;;;;5035451;28;20832;-82
2022/03/07 02:09:04;;;;;;;6.93;4.17;;;0.20;97.30;;;;;;5018885;28;20173;-83
2022/03/07 02:11:31;;;;;;;5.60;3.80;;;0.20;97.30;;;;;;5018822;28;20459;-83
2022/03/07 02:13:56;;;;;;;6.13;3.67;;;0.20;97.30;;;;;;5018096;28;20423;-82
2022/03/07 02:16:22;;;;;;;5.57;3.80;;;0.20;97.30;;;;;;5018273;28;21002;-82
2022/03/07 02:18:47;;;;;;;5.17;3.67;;;0.20;97.30;;;;;;5018496;28;20558;-82
2022/03/07 02:21:18;;;;;;;7.83;4.10;;;0.20;97.30;;;;;;5018587;28;20264;-83
2022/03/07 02:23:45;;;;;;;4.90;3.33;;;0.20;97.30;;;;;;5018202;28;20644;-83
2022/03/07 02:26:12;;;;;;;6.77;4.47;;;0.20;97.30;;;;;;5018602;28;20440;-83
2022/03/07 02:28:43;;;;;;;5.43;3.47;;;0.20;97.30;;;;;;5018620;28;20429;-83
2022/03/07 02:31:09;;;;;;;4.50;3.60;;;0.20;97.30;;;;;;5018400;28;20491;-83
2022/03/07 02:33:35;;;;;;;6.83;3.93;;;0.20;97.30;;;;;;5018067;28;20405;-83
2022/03/07 02:36:02;;;;;;;7.63;3.67;;;0.20;97.30;;;;;;5018693;28;20432;-82
2022/03/07 02:38:27;;;;;;;4.30;3.50;;;0.20;97.30;;;;;;5018558;28;20173;-82
2022/03/07 02:40:53;;;;;;;11.80;4.50;;;0.20;97.30;;;;;;5018273;28;20415;-82
2022/03/07 02:43:18;;;;;;;7.70;3.60;;;0.20;97.30;;;;;;5018569;28;20183;-82
2022/03/07 02:45:44;;;;;;;5.47;3.80;;;0.20;97.30;;;;;;5017940;28;20203;-83
2022/03/07 02:48:10;;;;;;;5.77;4.43;;;0.20;97.30;;;;;;5018444;28;20778;-83
2022/03/07 02:50:36;;;;;;;7.10;4.57;;;0.30;97.30;;;;;;5017545;28;20436;-82
2022/03/07 02:53:01;;;;;;;7.70;4.20;;;0.20;97.30;;;;;;5017958;28;20729;-82
2022/03/07 02:55:27;;;;;;;5.37;4.03;;;0.20;97.30;;;;;;5017807;28;20699;-83
2022/03/07 02:57:53;;;;;;;4.77;3.93;;;0.20;97.30;;;;;;5017822;28;20423;-82
2022/03/07 03:00:19;;;;;;;7.47;4.63;;;0.20;97.30;;;;;;5017928;28;20237;-82
2022/03/07 03:02:44;;;;;;;11.73;4.53;;;0.20;97.30;;;;;;5017969;28;20177;-83
2022/03/07 03:05:11;;;;;;;5.57;3.83;;;0.20;97.30;;;;;;5024995;28;20969;-82
2022/03/07 03:07:36;;;;;;;6.53;4.23;;;0.20;97.30;;;;;;5045668;28;20235;-82
2022/03/07 03:10:03;;;;;;;8.83;4.50;;;0.20;97.30;;;;;;5056411;28;20907;-82
2022/03/07 03:12:29;;;;;;;6.13;3.80;;;0.20;97.30;;;;;;5057078;28;20207;-82
2022/03/07 03:14:54;;;;;;;7.23;4.23;;;0.20;97.30;;;;;;5057197;28;20442;-82
2022/03/07 03:17:20;;;;;;;9.27;4.40;;;0.20;97.30;;;;;;5056774;28;20187;-82
2022/03/07 03:19:46;;;;;;;10.70;4.97;;;0.20;97.30;;;;;;5056296;28;20263;-82
2022/03/07 03:22:19;;;;;;;6.90;4.30;;;0.20;97.30;;;;;;5057234;28;20430;-82
2022/03/07 03:24:46;;;;;;;10.80;3.70;;;0.20;97.30;;;;;;5055985;28;20476;-82
2022/03/07 03:27:12;;;;;;;5.87;3.97;;;0.20;97.30;;;;;;5056944;28;20433;-82
2022/03/07 03:29:38;;;;;;;12.30;4.57;;;0.20;97.30;;;;;;5056942;28;20422;-82
2022/03/07 03:32:04;;;;;;;6.13;4.07;;;0.20;97.30;;;;;;5056576;28;20278;-82
2022/03/07 03:34:29;;;;;;;7.10;4.37;;;0.10;97.30;;;;;;5052290;28;20419;-82
2022/03/07 03:36:55;;;;;;;6.50;4.07;;;0.10;97.30;;;;;;5053535;28;20422;-82
2022/03/07 03:39:20;;;;;;;7.60;4.40;;;0.10;97.30;;;;;;5052946;28;20199;-82
2022/03/07 03:41:46;;;;;;;7.70;4.00;;;0.10;97.30;;;;;;5053263;28;20177;-82
2022/03/07 03:44:11;;;;;;;7.53;4.50;;;0.20;97.30;;;;;;5053040;28;20196;-82
2022/03/07 03:46:37;;;;;;;6.83;4.70;;;0.20;97.30;;;;;;5053102;28;20235;-82
2022/03/07 03:49:03;;;;;;;6.63;4.60;;;0.20;97.30;;;;;;5052892;28;20556;-83
2022/03/07 03:51:29;;;;;;;7.10;4.47;;;0.20;97.30;;;;;;5053465;28;20269;-82
2022/03/07 03:53:54;;;;;;;7.90;5.10;;;0.20;97.30;;;;;;5053011;28;20415;-81
2022/03/07 03:56:20;;;;;;;12.90;4.57;;;0.20;97.30;;;;;;5051709;28;20991;-81
2022/03/07 03:58:46;;;;;;;6.37;4.57;;;0.20;97.30;;;;;;5049749;28;20180;-77
2022/03/07 04:01:11;;;;;;;12.00;4.60;;;0.20;97.30;;;;;;5052024;28;20190;-81
2022/03/07 04:03:37;;;;;;;7.30;4.47;;;0.20;97.30;;;;;;5053519;28;20331;-82
2022/03/07 04:06:04;;;;;;;6.57;4.53;;;0.20;97.30;;;;;;5037396;28;20263;-81
2022/03/07 04:08:30;;;;;;;6.53;4.30;;;0.20;97.30;;;;;;5016141;28;20191;-81
2022/03/07 04:10:56;;;;;;;8.90;4.80;;;0.20;97.30;;;;;;5016320;28;20436;-82
2022/03/07 04:13:21;;;;;;;7.27;4.80;;;0.10;97.30;;;;;;5016811;28;20459;-82
2022/03/07 04:15:48;;;;;;;10.90;5.20;;;0.10;97.30;;;;;;5017185;28;20207;-82
2022/03/07 04:18:14;;;;;;;9.33;4.60;;;0.10;97.30;;;;;;5017547;28;20270;-82
2022/03/07 04:20:39;;;;;;;12.00;4.30;;;0.10;97.30;;;;;;5016751;28;20534;-81
2022/03/07 04:23:05;;;;;;;8.30;4.43;;;0.10;97.30;;;;;;5015557;28;20490;-77
2022/03/07 04:25:33;;;;;;;7.73;4.40;;;0.00;97.30;;;;;;5011956;28;20205;-78
2022/03/07 04:28:00;;;;;;;10.43;4.63;;;0.00;97.30;;;;;;5012508;28;20611;-80
2022/03/07 04:30:26;;;;;;;9.00;4.60;;;0.00;97.30;;;;;;5011314;28;20427;-77
2022/03/07 04:32:52;;;;;;;7.27;3.60;;;0.00;97.30;;;;;;5011145;28;20471;-77
2022/03/07 04:35:18;;;;;;;8.33;4.47;;;-0.10;97.30;;;;;;5011090;28;20539;-77
2022/03/07 04:37:44;;;;;;;8.90;4.70;;;-0.20;97.30;;;;;;5014873;28;20426;-82
2022/03/07 04:40:13;;;;;;;11.43;4.77;;;-0.20;97.30;;;;;;5017431;28;21156;-81
2022/03/07 04:42:40;;;;;;;7.47;4.70;;;-0.30;97.30;;;;;;5015932;28;20435;-81
2022/03/07 04:45:06;;;;;;;9.73;5.10;;;-0.30;97.30;;;;;;5017755;28;20950;-82
2022/03/07 04:47:32;;;;;;;8.97;4.77;;;-0.30;97.30;;;;;;5016803;28;20510;-82
2022/03/07 04:49:58;;;;;;;6.60;4.73;;;-0.30;97.30;;;;;;5017457;28;20935;-81
2022/03/07 04:52:25;;;;;;;8.57;4.73;;;-0.20;97.30;;;;;;5017069;28;20208;-82
2022/03/07 04:54:51;;;;;;;11.20;4.60;;;-0.20;97.30;;;;;;5017488;28;20207;-81
2022/03/07 04:57:19;;;;;;;7.77;4.00;;;-0.20;97.30;;;;;;5017691;28;20416;-82
2022/03/07 04:59:45;;;;;;;8.93;4.60;;;-0.20;97.30;;;;;;5017039;28;20218;-81
2022/03/07 05:02:14;;;;;;;8.37;5.20;;;-0.20;97.30;;;;;;5017330;28;20658;-81
2022/03/07 05:04:41;;;;;;;6.10;4.00;;;-0.20;97.30;;;;;;5020648;28;21009;-82
2022/03/07 05:07:06;;;;;;;9.00;4.77;;;-0.20;97.30;;;;;;5037033;28;20443;-82
2022/03/07 05:09:32;;;;;;;9.20;4.70;;;-0.20;97.30;;;;;;5037201;28;20421;-81
2022/03/07 05:11:58;;;;;;;7.30;4.60;;;-0.20;97.30;;;;;;5036577;28;20261;-82
2022/03/07 05:14:24;;;;;;;9.30;5.47;;;-0.20;97.30;;;;;;5036931;28;20200;-81
2022/03/07 05:16:49;;;;;;;11.20;5.70;;;-0.20;97.30;;;;;;5037176;28;20434;-82
2022/03/07 05:19:15;;;;;;;9.80;6.03;;;-0.30;97.30;;;;;;5038129;28;20172;-81
2022/03/07 05:21:41;;;;;;;9.87;6.07;;;-0.30;97.30;;;;;;5046490;28;20181;-82
2022/03/07 05:24:07;;;;;;;11.77;5.77;;;-0.30;97.30;;;;;;5060862;28;20181;-77
2022/03/07 05:26:38;;;;;;;8.97;5.13;;;-0.30;97.30;;;;;;5055043;28;20212;-82
2022/03/07 05:29:07;;;;;;;10.73;5.50;;;-0.40;97.30;;;;;;5040684;28;20419;-81
2022/03/07 05:31:34;;;;;;;8.53;5.47;;;-0.40;97.30;;;;;;5040154;28;20537;-82
2022/03/07 05:34:00;;;;;;;11.60;5.60;;;-0.40;97.30;;;;;;5040445;28;20423;-81
2022/03/07 05:36:25;;;;;;;6.47;4.53;;;-0.40;97.30;;;;;;5056928;28;20887;-81
2022/03/07 05:38:51;;;;;;;13.43;5.90;;;-0.50;97.30;;;;;;5039616;28;20172;-81
2022/03/07 05:41:17;;;;;;;9.23;5.13;;;-0.50;97.30;;;;;;5039744;28;20176;-82
2022/03/07 05:43:42;;;;;;;12.10;6.00;;;-0.50;97.30;;;;;;5039273;28;20427;-82
2022/03/07 05:46:08;;;;;;;6.67;5.37;;;-0.60;97.30;;;;;;5039143;28;20196;-80
2022/03/07 05:48:34;;;;;;;12.83;6.77;;;-0.60;97.30;;;;;;5040138;28;20181;-82
2022/03/07 05:51:00;;;;;;;11.83;7.00;;;-0.70;97.30;;;;;;5039689;28;20446;-82
2022/03/07 05:53:25;;;;;;;13.43;6.43;;;-0.70;97.30;;;;;;5040253;28;20412;-82
2022/03/07 05:55:52;;;;;;;11.20;5.90;;;-0.70;97.30;;;;;;5040511;28;20204;-82
2022/03/07 05:58:18;;;;;;;9.63;5.70;;;-0.80;97.30;;;;;;5041186;28;20229;-81
2022/03/07 06:00:44;;;;;;;8.80;5.67;;;-0.80;97.30;;;;;;5040383;28;20439;-82
2022/03/07 06:03:11;;;;;;;14.90;6.73;;;-0.80;97.30;;;;;;5050895;28;20423;-81
2022/03/07 06:05:37;;;;;;;15.13;6.50;;;-0.90;97.30;;;;;;5040123;28;20253;-82
2022/03/07 06:08:04;;;;;;;11.77;6.50;;;-0.90;97.30;;;;;;5057765;28;20430;-81
2022/03/07 06:10:30;;;;;;;12.23;6.40;;;-0.90;97.30;;;;;;5046495;28;20863;-81
2022/03/07 06:12:55;;;;;;;15.73;6.07;;;-0.90;97.30;;;;;;5040635;28;20461;-81
2022/03/07 06:15:21;;;;;;;9.87;6.50;;;-0.90;97.30;;;;;;5040858;28;20790;-80
2022/03/07 06:17:58;;;;;;;10.03;5.60;;;-0.90;97.30;;;;;;5040778;28;20173;-81
2022/03/07 06:20:25;;;;;;;10.30;6.00;;;-0.90;97.30;;;;;;5058094;28;20418;-81
2022/03/07 06:22:51;;;;;;;11.33;6.77;;;-0.90;97.30;;;;;;5056968;28;20506;-80
2022/03/07 06:25:16;;;;;;;13.77;6.60;;;-0.90;97.30;;;;;;5057427;28;20447;-81
2022/03/07 06:27:42;;;;;;;11.63;5.70;;;-0.80;97.30;;;;;;5056399;28;20423;-81
2022/03/07 06:30:08;;;;;;;9.73;5.40;;;-0.80;97.30;;;;;;5057666;28;20643;-81
2022/03/07 06:32:35;;;;;;;10.53;5.37;;;-0.80;97.30;;;;;;5056200;28;20268;-80
2022/03/07 06:35:01;;;;;;;12.87;6.43;;;-0.80;97.30;;;;;;5054818;28;20950;-81
2022/03/07 06:37:27;;;;;;;17.60;5.57;;;-0.70;97.30;;;;;;5056730;28;21033;-82
2022/03/07 06:39:52;;;;;;;10.57;5.53;;;-0.70;97.30;;;;;;5056633;28;20474;-81
2022/03/07 06:42:18;;;;;;;11.20;6.07;;;-0.70;97.30;;;;;;5056541;28;20271;-81
2022/03/07 06:44:43;;;;;;;15.73;6.13;;;-0.60;97.30;;;;;;5055959;28;20246;-81
2022/03/07 06:47:10;;;;;;;15.40;5.33;;;-0.60;97.30;;;;;;5056609;28;20185;-82
2022/03/07 06:49:36;;;;;;;10.80;5.73;;;-0.50;97.30;;;;;;5057256;28;20184;-80
2022/03/07 06:52:02;;;;;;;18.70;7.10;;;-0.40;97.30;;;;;;5056728;28;20789;-81
2022/03/07 06:54:28;;;;;;;12.17;6.87;;;-0.40;97.30;;;;;;5056716;28;20419;-81
2022/03/07 06:56:56;;;;;;;14.00;6.27;;;-0.30;97.30;;;;;;5057015;28;20411;-82
2022/03/07 06:59:24;;;;;;;12.20;5.83;;;-0.20;97.30;;;;;;5056774;28;20415;-81
2022/03/07 07:01:51;;;;;;;9.80;5.97;;;-0.10;97.30;;;;;;5056413;28;20427;-81
2022/03/07 07:04:17;;;;;;;12.17;5.37;;;0.00;97.30;;;;;;5056452;28;21058;-82
2022/03/07 07:06:43;;;;;;;12.87;6.10;;;0.10;97.30;;;;;;5042946;28;20466;-81
2022/03/07 07:09:08;;;;;;;16.80;6.27;;;0.20;97.30;;;;;;5042710;28;20476;-82
2022/03/07 07:11:34;;;;;;;11.70;5.93;;;0.30;97.30;;;;;;5042492;28;20226;-82
2022/03/07 07:13:59;;;;;;;11.80;5.73;;;0.40;97.30;;;;;;5042228;28;20253;-82
2022/03/07 07:16:24;;;;;;;8.97;5.50;;;0.50;97.30;;;;;;5042089;28;20335;-81
2022/03/07 07:18:50;;;;;;;6.70;4.93;;;0.60;97.30;;;;;;5042440;28;20179;-82
2022/03/07 07:21:16;;;;;;;11.70;5.50;;;0.70;97.30;;;;;;5041503;28;20195;-79
2022/03/07 07:23:41;;;;;;;10.37;4.97;;;0.70;97.30;;;;;;5048809;28;20175;-82
2022/03/07 07:26:07;;;;;;;9.13;5.40;;;0.80;97.30;;;;;;5073040;28;20286;-82
2022/03/07 07:28:33;;;;;;;9.20;5.63;;;0.80;97.30;;;;;;5041866;28;20183;-82
2022/03/07 07:30:58;;;;;;;9.00;5.10;;;0.90;97.30;;;;;;5067814;28;20182;-82
2022/03/07 07:33:24;;;;;;;7.47;5.13;;;1.00;97.30;;;;;;5077891;28;20512;-82
2022/03/07 07:35:50;;;;;;;13.23;5.57;;;1.10;97.30;;;;;;5077630;28;20583;-82
2022/03/07 07:38:15;;;;;;;10.40;4.50;;;1.20;97.30;;;;;;5077233;28;20179;-82
2022/03/07 07:40:41;;;;;;;7.83;4.80;;;1.30;97.30;;;;;;5056854;28;20425;-82
2022/03/07 07:43:07;;;;;;;8.80;4.23;;;1.30;97.30;;;;;;5039698;28;20221;-82
2022/03/07 07:45:33;;;;;;;7.27;4.60;;;1.40;97.30;;;;;;5039656;28;20208;-82
2022/03/07 07:47:59;;;;;;;8.63;4.93;;;1.40;97.30;;;;;;5038723;28;20415;-82
2022/03/07 07:50:25;;;;;;;10.30;4.47;;;1.50;97.30;;;;;;5039104;28;20907;-82
2022/03/07 07:52:51;;;;;;;14.20;4.60;;;1.60;97.30;;;;;;5055365;28;21042;-82
2022/03/07 07:55:17;;;;;;;11.00;4.30;;;1.70;97.30;;;;;;5038528;28;20449;-82
2022/03/07 07:57:42;;;;;;;7.77;4.17;;;1.80;96.40;;;;;;5038572;28;20184;-82
2022/03/07 08:00:10;;;;;;;9.17;4.00;;;1.90;96.20;;;;;;5039218;28;20172;-83
2022/03/07 08:02:36;;;;;;;15.93;3.67;;;2.00;96.10;;;;;;5038371;28;20186;-82
2022/03/07 08:05:03;;;;;;;7.17;4.20;;;2.20;95.50;;;;;;5038325;28;20501;-82
2022/03/07 08:07:29;;;;;;;5.37;3.60;;;2.20;94.30;;;;;;5037670;28;20423;-83
2022/03/07 08:09:54;;;;;;;5.90;3.33;;;2.30;94.40;;;;;;5037335;28;20418;-83
2022/03/07 08:12:20;;;;;;;10.03;3.53;;;2.40;93.20;;;;;;5037797;28;20228;-83
2022/03/07 08:14:46;;;;;;;4.60;3.07;;;2.40;92.70;;;;;;5037324;28;20316;-83
2022/03/07 08:17:12;;;;;;;9.53;4.50;;;2.50;91.90;;;;;;5036945;28;20206;-83
2022/03/07 08:19:38;;;;;;;4.77;3.00;;;2.60;91.70;;;;;;5036236;28;20582;-82
2022/03/07 08:22:04;;;;;;;5.30;2.83;;;2.70;91.60;;;;;;5036120;28;20825;-83
2022/03/07 08:24:30;;;;;;;10.10;3.43;;;2.70;91.00;;;;;;5035900;28;20422;-83
2022/03/07 08:26:58;;;;;;;4.50;2.60;;;2.80;90.10;;;;;;5035153;28;20175;-83
2022/03/07 08:29:26;;;;;;;5.30;2.43;;;2.80;89.20;;;;;;5035532;28;20179;-83
2022/03/07 08:31:51;;;;;;;17.77;3.13;;;2.90;88.90;;;;;;5055193;28;20819;-82
2022/03/07 08:34:18;;;;;;;8.50;3.23;;;3.00;89.10;;;;;;5071853;28;20410;-83
2022/03/07 08:36:43;;;;;;;6.33;3.40;;;3.10;89.90;;;;;;5055250;28;20199;-83
2022/03/07 08:39:09;;;;;;;5.07;2.87;;;3.10;89.00;;;;;;5072308;28;20954;-83
2022/03/07 08:41:34;;;;;;;4.10;3.37;;;3.20;88.80;;;;;;5071724;28;20963;-82
2022/03/07 08:44:00;;;;;;;14.53;3.50;;;3.20;87.70;;;;;;5071238;28;20186;-83
2022/03/07 08:46:26;;;;;;;6.13;3.47;;;3.30;89.10;;;;;;5054566;28;20195;-83
2022/03/07 08:48:52;;;;;;;4.43;2.87;;;3.40;88.50;;;;;;5071564;28;20955;-82
2022/03/07 08:51:17;;;;;;;4.17;2.70;;;3.50;87.30;;;;;;5071098;28;20179;-83
2022/03/07 08:53:43;;;;;;;7.97;3.40;;;3.50;87.60;;;;;;5070969;28;20179;-83
2022/03/07 08:56:09;;;;;;;4.77;3.57;;;3.50;88.20;;;;;;5074919;28;20696;-84
2022/03/07 08:58:34;;;;;;;6.50;3.80;;;3.60;88.60;;;;;;5058697;28;20178;-83
2022/03/07 09:01:00;;;;;;;4.70;3.00;;;3.70;88.50;;;;;;5075826;28;20436;-83
2022/03/07 09:03:25;;;;;;;7.30;3.60;;;3.70;88.70;;;;;;5075641;28;20397;-82
2022/03/07 09:05:51;;;;;;;5.33;3.77;;;3.70;88.70;;;;;;5072024;28;20238;-83
2022/03/07 09:08:16;;;;;;;4.80;3.40;;;3.70;88.90;;;;;;5055470;28;20225;-82
2022/03/07 09:10:42;;;;;;;7.53;3.70;;;3.80;88.60;;;;;;5055697;28;20293;-83
2022/03/07 09:13:08;;;;;;;6.77;3.40;;;3.90;88.20;;;;;;5056088;28;20674;-83
2022/03/07 09:15:34;;;;;;;7.40;3.57;;;3.90;88.70;;;;;;5056143;28;20188;-82
2022/03/07 09:18:00;;;;;;;13.60;3.77;;;4.00;89.10;;;;;;5056854;28;20406;-82
2022/03/07 09:20:26;;;;;;;7.77;4.20;;;4.00;89.10;;;;;;5056959;28;20230;-83
2022/03/07 09:22:54;;;;;;;8.47;4.60;;;4.10;89.70;;;;;;5056229;28;20418;-83
2022/03/07 09:25:20;;;;;;;7.07;4.40;;;4.10;89.50;;;;;;5035909;28;20624;-83
2022/03/07 09:27:50;;;;;;;6.63;4.17;;;4.20;89.10;;;;;;5035782;28;20442;-82
2022/03/07 09:30:15;;;;;;;7.50;4.40;;;4.30;88.90;;;;;;5034390;28;20206;-83
2022/03/07 09:32:41;;;;;;;12.27;4.43;;;4.30;89.60;;;;;;5033910;28;20459;-83
2022/03/07 09:35:07;;;;;;;7.63;5.10;;;4.40;89.20;;;;;;5035624;28;20334;-83
2022/03/07 09:37:33;;;;;;;7.03;4.43;;;4.50;88.90;;;;;;5034802;28;20435;-83
2022/03/07 09:39:59;;;;;;;9.23;5.00;;;4.60;89.80;;;;;;5035005;28;20415;-83
2022/03/07 09:42:25;;;;;;;12.13;4.53;;;4.70;89.40;;;;;;5035923;28;20176;-83
2022/03/07 09:44:52;;;;;;;8.47;3.83;;;4.70;90.00;;;;;;5035641;28;20295;-83
2022/03/07 09:47:20;;;;;;;7.07;4.30;;;4.60;89.90;;;;;;5036605;28;20430;-83
2022/03/07 09:49:45;;;;;;;9.83;4.97;;;4.50;90.00;;;;;;5035634;28;20434;-82
2022/03/07 09:52:11;;;;;;;9.67;5.10;;;4.30;90.30;;;;;;5035562;28;20462;-82
2022/03/07 09:54:37;;;;;;;11.53;5.20;;;4.30;91.10;;;;;;5044107;28;20292;-82
2022/03/07 09:57:03;;;;;;;11.63;4.47;;;4.40;91.20;;;;;;5036713;28;20454;-82
2022/03/07 09:59:31;;;;;;;7.70;4.50;;;4.40;91.00;;;;;;5036856;28;20172;-83
2022/03/07 10:02:00;;;;;;;9.40;4.90;;;4.70;90.90;;;;;;5036643;28;20500;-83
2022/03/07 10:04:25;;;;;;;10.20;5.07;;;5.00;90.70;;;;;;5052835;28;20423;-83
2022/03/07 10:06:51;;;;;;;6.57;4.40;;;5.10;89.90;;;;;;5037115;28;20512;-82
2022/03/07 10:09:22;;;;;;;6.70;4.53;;;5.10;90.20;;;;;;5039004;28;20180;-82
2022/03/07 10:12:00;;;;;;;10.50;4.70;;;5.30;89.80;;;;;;5038348;28;20466;-83
2022/03/07 10:14:45;;;;;;;8.50;4.13;;;5.40;89.40;;;;;;5038637;28;20410;-82
2022/03/07 10:17:26;;;;;;;7.80;4.60;;;5.60;89.30;;;;;;5038000;28;20422;-84
2022/03/07 10:19:56;;;;;;;7.30;4.63;;;5.60;88.50;;;;;;5037422;28;20406;-83
2022/03/07 10:22:24;;;;;;;9.20;5.00;;;5.50;88.50;;;;;;5038210;28;20414;-82
2022/03/07 10:25:00;;;;;;;7.20;3.97;;;5.50;88.40;;;;;;5037804;28;20438;-83
2022/03/07 10:27:28;;;;;;;11.33;5.00;;;5.50;88.70;;;;;;5038545;28;20429;-82
2022/03/07 10:29:53;;;;;;;8.47;5.00;;;5.60;88.80;;;;;;5037280;28;20434;-83
2022/03/07 10:32:20;;;;;;;6.23;4.70;;;5.70;89.40;;;;;;5027817;28;20453;-83
2022/03/07 10:34:48;;;;;;;14.93;5.33;;;5.80;88.70;;;;;;5062867;28;20203;-83
2022/03/07 10:37:13;;;;;;;9.63;5.20;;;5.80;88.60;;;;;;5066189;28;20435;-83
2022/03/07 10:39:52;;;;;;;8.67;5.37;;;5.90;89.40;;;;;;5074457;28;20406;-83
2022/03/07 10:42:19;;;;;;;8.80;5.00;;;5.90;88.00;;;;;;5024775;28;20196;-83
2022/03/07 10:44:45;;;;;;;9.30;5.97;;;5.90;88.60;;;;;;5018000;28;20965;-83
2022/03/07 10:47:17;;;;;;;6.50;4.90;;;6.00;88.30;;;;;;5018096;28;20415;-83
2022/03/07 10:49:55;;;;;;;9.00;4.70;;;6.10;88.40;;;;;;5026584;28;20405;-83
2022/03/07 10:52:22;;;;;;;7.67;4.87;;;6.20;88.30;;;;;;5020349;28;20929;-84
2022/03/07 10:54:49;;;;;;;11.77;5.20;;;6.10;88.10;;;;;;5018129;28;20462;-83
2022/03/07 10:57:17;;;;;;;10.63;6.03;;;6.30;87.90;;;;;;5017769;28;20436;-83
2022/03/07 10:59:44;;;;;;;9.30;5.00;;;6.60;89.40;;;;;;5018637;28;20411;-83
2022/03/07 11:02:11;;;;;;;8.30;5.60;;;6.60;88.60;;;;;;5018276;28;20507;-83
2022/03/07 11:04:41;;;;;;;8.07;4.50;;;6.30;87.80;;;;;;5019224;28;21172;-82
2022/03/07 11:07:09;;;;;;;9.60;5.40;;;5.90;88.20;;;;;;5018713;28;20458;-83
2022/03/07 11:09:38;;;;;;;9.13;5.57;;;5.80;89.10;;;;;;5019332;28;20419;-83
2022/03/07 11:12:05;;;;;;;12.90;6.00;;;5.90;89.40;;;;;;5018561;28;20550;-83
2022/03/07 11:14:32;;;;;;;10.60;4.57;;;6.10;89.30;;;;;;5035854;28;20401;-83
2022/03/07 11:16:58;;;;;;;8.70;5.07;;;6.30;89.60;;;;;;5041049;28;20769;-82
2022/03/07 11:19:25;;;;;;;8.90;5.13;;;6.40;88.90;;;;;;5041380;28;20422;-83
2022/03/07 11:21:52;;;;;;;9.03;5.10;;;6.60;89.50;;;;;;5038331;28;20453;-83
2022/03/07 11:24:23;;;;;;;9.50;5.63;;;6.60;88.50;;;;;;5037330;28;20426;-82
2022/03/07 11:26:51;;;;;;;11.13;5.27;;;6.30;88.30;;;;;;5039646;28;20472;-82
2022/03/07 11:29:17;;;;;;;7.53;4.70;;;6.10;89.20;;;;;;5039378;28;20410;-83
2022/03/07 11:31:46;;;;;;;10.60;5.57;;;6.20;90.10;;;;;;5056010;28;20531;-83
2022/03/07 11:34:12;;;;;;;12.70;5.20;;;6.50;89.00;;;;;;5054858;28;20772;-83
2022/03/07 11:36:44;;;;;;;8.17;4.90;;;6.80;88.40;;;;;;5037071;28;20434;-82
2022/03/07 11:39:11;;;;;;;7.60;4.80;;;7.00;88.20;;;;;;5037202;28;20481;-82
2022/03/07 11:41:38;;;;;;;10.33;5.60;;;7.30;86.90;;;;;;5036366;28;20422;-84
2022/03/07 11:44:09;;;;;;;11.23;5.67;;;7.30;86.20;;;;;;5040327;28;20928;-82
2022/03/07 11:46:36;;;;;;;11.40;4.97;;;7.30;87.20;;;;;;5038842;28;20438;-82
2022/03/07 11:49:04;;;;;;;8.73;5.17;;;7.40;86.50;;;;;;5037891;28;20453;-83
2022/03/07 11:51:31;;;;;;;10.20;5.10;;;7.40;86.00;;;;;;5036358;28;20976;-83
2022/03/07 11:53:58;;;;;;;10.80;5.70;;;7.50;85.90;;;;;;5043998;28;20425;-83
2022/03/07 11:56:30;;;;;;;8.10;4.90;;;7.50;85.90;;;;;;5072937;28;20836;-83
2022/03/07 11:58:59;;;;;;;8.50;5.33;;;7.60;86.00;;;;;;5040558;28;20418;-83
2022/03/07 12:01:26;;;;;;;11.33;4.97;;;7.60;85.60;;;;;;5036513;28;20433;-83
2022/03/07 12:03:52;;;;;;;13.40;4.80;;;7.80;86.20;;;;;;5044081;28;20805;-83
2022/03/07 12:06:19;;;;;;;11.80;5.47;;;7.90;85.50;;;;;;5072546;28;20477;-83
2022/03/07 12:08:54;;;;;;;8.00;5.20;;;8.00;86.00;;;;;;5050791;28;20184;-83
2022/03/07 12:11:27;;;;;;;7.70;4.93;;;8.40;85.70;;;;;;5044841;28;20500;-83
2022/03/07 12:13:54;;;;;;;7.40;5.10;;;8.30;83.50;;;;;;5063049;28;20422;-83
2022/03/07 12:16:29;;;;;;;7.97;4.43;;;8.10;83.30;;;;;;5051771;28;20434;-83
2022/03/07 12:19:06;;;;;;;7.70;4.93;;;7.80;84.10;;;;;;5051990;28;20494;-82
2022/03/07 12:21:33;;;;;;;7.53;5.10;;;7.60;84.60;;;;;;5051911;28;20414;-83
2022/03/07 12:23:59;;;;;;;10.23;4.57;;;7.60;85.30;;;;;;5052356;28;20507;-83
2022/03/07 12:26:24;;;;;;;8.30;4.43;;;8.00;85.50;;;;;;5034961;28;20454;-83
2022/03/07 12:28:50;;;;;;;7.73;4.07;;;7.80;84.70;;;;;;5035007;28;20612;-83
2022/03/07 12:31:16;;;;;;;7.70;3.90;;;7.60;84.90;;;;;;5065528;28;20672;-83
2022/03/07 12:33:46;;;;;;;8.37;4.23;;;7.30;84.60;;;;;;5071545;28;20179;-83
2022/03/07 12:36:16;;;;;;;9.90;4.70;;;7.20;85.40;;;;;;5055013;28;20959;-83
2022/03/07 12:38:50;;;;;;;7.50;4.33;;;7.30;85.70;;;;;;5054968;28;20421;-83
2022/03/07 12:41:19;;;;;;;8.97;5.13;;;7.50;85.10;;;;;;5054540;28;20397;-83
2022/03/07 12:43:50;;;;;;;6.07;4.20;;;7.60;84.50;;;;;;5054707;28;20409;-83
2022/03/07 12:46:15;;;;;;;7.67;4.47;;;7.50;85.10;;;;;;5055170;28;20438;-83
2022/03/07 12:48:43;;;;;;;6.63;4.30;;;7.60;85.20;;;;;;5071777;28;20443;-83
2022/03/07 12:51:15;;;;;;;11.47;4.83;;;7.50;85.30;;;;;;5054937;28;20182;-83